ADDS METAR Data INFO
IDs: Format: Raw Decoded Include TAF

Data at: 0504 UTC 23 May 2017

KRBO 230455Z AUTO 05004KT 10SM CLR 25/25 A2986 RMK AO2 T02510251
KRBO 230435Z AUTO 03004KT 10SM CLR 25/25 A2986 RMK AO2 T02500250
KRBO 230415Z AUTO 02004KT 10SM CLR 25/25 A2987 RMK AO2 T02470247
KRBO 230355Z AUTO 00000KT 10SM CLR 25/25 A2986 RMK AO2 T02500250
KRBO 230335Z AUTO 00000KT 10SM CLR 25/25 A2985 RMK AO2 T02510251
KRBO 230315Z AUTO 00000KT 10SM CLR 25/25 A2985 RMK AO2 T02520252
KRBO 230255Z AUTO 00000KT 10SM CLR 25/25 A2984 RMK AO2 T02530253
KRBO 230235Z AUTO 00000KT 10SM CLR 26/26 A2984 RMK AO2 T02570257
KRBO 230215Z AUTO 00000KT 10SM CLR 26/24 A2982 RMK AO2 T02630242
KRBO 230155Z AUTO 08003KT 10SM CLR 26/24 A2981 RMK AO2 T02630241
KRBO 230135Z AUTO 09005KT 10SM CLR 27/24 A2981 RMK AO2 T02660240
KRBO 230115Z AUTO 00000KT 10SM CLR 27/24 A2981 RMK AO2 T02740237
KRBO 230055Z AUTO 07003KT 10SM CLR 28/23 A2981 RMK AO2 T02810232
KRBO 230035Z AUTO 06004KT 10SM CLR 29/23 A2981 RMK AO2 T02850229
KRBO 230015Z AUTO 04004KT 10SM SCT055 29/23 A2982 RMK AO2 T02890226
KRBO 222355Z AUTO 06004KT 10SM CLR 29/23 A2982 RMK AO2 T02920228 10298 20272
KRBO 222335Z AUTO 08006KT 10SM SCT055 SCT080 29/23 A2982 RMK AO2 T02930228
KRBO 222315Z AUTO 09005KT 10SM SCT055 SCT080 BKN100 30/23 A2982 RMK AO2 T02950231
KRBO 222255Z AUTO 09006KT 10SM SCT075 BKN100 30/23 A2982 RMK AO2 T02970232
KRBO 222235Z AUTO 06007KT 10SM SCT055 BKN075 BKN100 29/23 A2983 RMK AO2 T02940231
KRBO 222215Z AUTO 10004KT 10SM OVC055 30/23 A2983 RMK AO2 T02950234
KRBO 222155Z AUTO 09005KT 10SM OVC065 29/24 A2984 RMK AO2 T02900235
KRBO 222135Z AUTO 08003KT 10SM OVC065 28/24 A2984 RMK AO2 T02840236
KRBO 222115Z AUTO 00000KT 10SM OVC065 29/24 A2985 RMK AO2 LTG DSNT E T02850238
KRBO 222055Z AUTO 12003KT 10SM SCT019 OVC065 28/24 A2986 RMK AO2 T02820236
KRBO 222035Z AUTO 00000KT 10SM SCT019 OVC065 28/23 A2986 RMK AO2 T02800234
KRBO 222015Z AUTO 14005KT 10SM SCT018 SCT023 OVC065 28/24 A2987 RMK AO2 T02800235
KRBO 221955Z AUTO 00000KT 10SM BKN020 BKN029 OVC065 28/23 A2988 RMK AO2 T02770233
KRBO 221935Z AUTO 11004KT 10SM SCT020 SCT029 OVC065 28/23 A2989 RMK AO2 T02790231
KRBO 221915Z AUTO 09006KT 10SM SCT027 SCT034 OVC065 28/23 A2989 RMK AO2 T02820234
KRBO 221855Z AUTO 09008KT 10SM SCT016 BKN055 OVC065 28/24 A2989 RMK AO2 T02800235
KRBO 221835Z AUTO 08008KT 10SM SCT016 BKN028 OVC050 28/24 A2990 RMK AO2 LTG DSNT E T02780239
KRBO 221815Z AUTO 07007KT 10SM SCT015 SCT020 OVC050 28/23 A2990 RMK AO2 LTG DSNT SE T02750231
KRBO 221755Z AUTO 05009KT 10SM SCT013 SCT020 OVC050 27/24 A2991 RMK AO2 60007 T02740236 10274 20214
KRBO 221735Z AUTO 07005KT 10SM VCTS BKN013 OVC050 27/24 A2991 RMK AO2 LTG DSNT SE T02710241
KRBO 221715Z AUTO 06006KT 10SM BKN013 OVC048 27/24 A2992 RMK AO2 T02650240
KRBO 221655Z AUTO 06006KT 10SM SCT008 OVC048 26/24 A2993 RMK AO2 LTG DSNT SE T02600241
KRBO 221635Z AUTO 07004KT 10SM BKN044 OVC050 25/25 A2993 RMK AO2 P0001 T02510251
KRBO 221615Z AUTO 00000KT 10SM -DZ SCT014 BKN038 OVC050 25/25 A2994 RMK AO2 P0001 T02460246
KRBO 221555Z AUTO 17006KT 10SM RA SCT016 BKN038 OVC050 25/25 A2995 RMK AO2 LTG DSNT SE T02460246
KRBO 221535Z AUTO 05005KT 10SM -RA OVC055 24/24 A2993 RMK AO2 P0004 T02440244
KRBO 221515Z AUTO 04007KT 10SM RA SCT040 BKN055 OVC070 24/24 A2994 RMK AO2 LTG DSNT E P0002 T02400240
KRBO 221455Z AUTO 03007KT 10SM -RA SCT041 BKN055 OVC070 24/24 A2994 RMK AO2 60007 T02360236
KRBO 221435Z AUTO 03007KT 10SM SCT011 BKN055 OVC075 23/23 A2995 RMK AO2 P0009 T02320232
KRBO 221415Z AUTO 02008KT 10SM -RA SCT009 BKN036 OVC048 23/23 A2995 RMK AO2 P0009 T02280228
KRBO 221355Z AUTO 01006KT 4SM RA SCT016 SCT028 OVC033 23/23 A2995 RMK AO2 LTG DSNT E P0006 T02280228
KRBO 221335Z AUTO 03006KT 10SM OVC031 23/23 A2993 RMK AO2 T02260226
KRBO 221315Z AUTO 04004KT 10SM -RA OVC029 22/22 A2994 RMK AO2 LTG DSNT E T02230223
KRBO 221255Z AUTO 02005KT 10SM OVC025 22/22 A2993 RMK AO2 LTG DSNT E T02220222
KRBO 221235Z AUTO 00000KT 10SM OVC023 22/22 A2993 RMK AO2 LTG DSNT E T02200220
KRBO 221215Z AUTO 02007KT 10SM SCT027 BKN040 BKN050 22/22 A2992 RMK AO2 LTG DSNT E T02150215
KRBO 221155Z AUTO 01008KT 10SM BKN026 BKN031 OVC041 22/22 A2992 RMK AO2 LTG DSNT E AND SE 70028 T02150215 10269 20213
KRBO 221135Z AUTO 01007KT 10SM OVC024 21/21 A2991 RMK AO2 LTG DSNT E AND SE T02130213
KRBO 221115Z AUTO 01008KT 10SM SCT020 BKN026 OVC033 21/21 A2991 RMK AO2 LTG DSNT E T02130213
KRBO 221055Z AUTO 02008KT 10SM -RA SCT006 BKN018 OVC034 21/21 A2992 RMK AO2 LTG DSNT NE AND E T02130213
KRBO 221035Z AUTO 36010KT 10SM -RA BKN006 OVC011 22/22 A2993 RMK AO2 LTG DSNT NE T02160216
KRBO 221015Z AUTO 35014G19KT 10SM OVC006 22/22 A2993 RMK AO2 LTG DSNT N THRU E T02210221
KRBO 220955Z AUTO 34013KT 7SM RA OVC006 23/23 A2993 RMK AO2 LTG DSNT N AND NE T02310231
KRBO 220935Z AUTO 34008KT 10SM BKN010 OVC014 24/24 A2992 RMK AO2 LTG DSNT N AND NE T02370237
KRBO 220915Z AUTO 34008KT 10SM OVC008 24/24 A2992 RMK AO2 LTG DSNT N AND NE T02380238
KRBO 220855Z AUTO 34005KT 10SM -RA OVC010 24/24 A2992 RMK AO2 LTG DSNT N T02380238
KRBO 220835Z AUTO 34003KT 10SM OVC012 24/24 A2992 RMK AO2 LTG DSNT NE AND E T02380238
KRBO 220815Z AUTO 01007KT 10SM -RA BKN009 OVC016 24/24 A2992 RMK AO2 LTG DSNT E AND NW T02400240
KRBO 220755Z AUTO 36006KT 10SM OVC009 24/24 A2993 RMK AO2 LTG DSNT NW T02420242
KRBO 220735Z AUTO 03004KT 10SM BKN007 OVC011 24/24 A2993 RMK AO2 LTG DSNT N T02430243
KRBO 220715Z AUTO 02005KT 10SM -RA BKN007 OVC012 24/24 A2996 RMK AO2 T02430243
KRBO 220655Z AUTO 36007KT 10SM BKN010 BKN018 OVC034 25/25 A2997 RMK AO2 T02480248
KRBO 220635Z AUTO 00000KT 7SM BKN010 BKN019 OVC080 27/27 A2997 RMK AO2 LTG DSNT NW P0002 T02670267
KRBO 220615Z AUTO 15003KT 7SM BKN012 BKN017 OVC055 27/27 A2998 RMK AO2 T02690269
KRBO 220555Z AUTO 08004KT 7SM SCT015 BKN020 OVC042 27/27 A2996 RMK AO2 T02680268 10270 20266 403100260
KRBO 220535Z AUTO 12003KT 7SM SCT012 SCT022 OVC034 27/27 A2997 RMK AO2 T02680268
KRBO 220515Z AUTO 10004KT 10SM SCT012 SCT025 OVC034 27/27 A2996 RMK AO2 T02680268
KRBO 220455Z AUTO 08007KT 10SM SCT012 SCT016 BKN032 27/27 A2995 RMK AO2 T02680268
KRBO 220435Z AUTO 08009KT 10SM SCT014 BKN024 OVC030 27/27 A2994 RMK AO2 T02690269
KRBO 220415Z AUTO 10008KT 10SM SCT015 BKN022 OVC033 27/27 A2996 RMK AO2 T02670267
KRBO 220355Z AUTO 11007KT 10SM BKN015 BKN020 OVC028 27/27 A2996 RMK AO2 T02670267
KRBO 220335Z AUTO 08010KT 10SM BKN015 BKN022 OVC028 27/27 A2993 RMK AO2 T02660266
KRBO 220315Z AUTO 05007KT 10SM -DZ BKN013 BKN024 OVC034 27/26 A2994 RMK AO2 T02700258
KRBO 220255Z AUTO 06006KT 10SM -RA SCT015 SCT021 BKN027 27/25 A2997 RMK AO2 LTG DSNT S T02700250
KRBO 220235Z AUTO 08008G14KT 10SM CLR 27/25 A2996 RMK AO2 LTG DSNT S T02690253
KRBO 220215Z AUTO 09009KT 10SM CLR 27/25 A2995 RMK AO2 LTG DSNT SW T02680251
KRBO 220155Z AUTO 09011KT 10SM SCT020 27/25 A2996 RMK AO2 LTG DSNT W T02700250
KRBO 220135Z AUTO 10009KT 10SM VCTS CLR 27/25 A2994 RMK AO2 LTG DSNT S THRU W T02700250
KRBO 220115Z AUTO 09010KT 10SM CLR 27/25 A2991 RMK AO2 LTG DSNT SW AND W T02700248
KRBO 220055Z AUTO 08010KT 10SM CLR 27/25 A2988 RMK AO2 LTG DSNT SW THRU NW T02700249
KRBO 220035Z AUTO 11007KT 10SM CLR 27/25 A2990 RMK AO2 LTG DSNT W AND NW T02700246
KRBO 220015Z AUTO 08007KT 10SM SCT090 27/25 A2988 RMK AO2 LTG DSNT NE T02700251
KRBO 212355Z AUTO 09009KT 10SM SCT090 27/25 A2991 RMK AO2 LTG DSNT W T02700250 10310 20270
KRBO 212335Z AUTO 08007KT 10SM BKN090 27/25 A2991 RMK AO2 LTG DSNT W T02710247
KRBO 212315Z AUTO 08006KT 10SM SCT030 SCT060 SCT075 27/25 A2992 RMK AO2 LTG DSNT N T02710246
KRBO 212255Z AUTO 08010KT 10SM TS SCT095 28/24 A2990 RMK AO2 LTG DSNT SW T02760242
KRBO 212235Z AUTO 07009KT 10SM BKN095 28/24 A2991 RMK AO2 LTG DSNT E T02810244
KRBO 212215Z AUTO 09010KT 10SM SCT023 SCT030 29/24 A2990 RMK AO2 LTG DSNT N AND W T02860239
KRBO 212155Z AUTO 10008KT 10SM SCT023 SCT030 29/24 A2990 RMK AO2 T02880242
KRBO 212135Z AUTO 10010KT 10SM SCT022 SCT028 SCT035 29/24 A2990 RMK AO2 T02920244
KRBO 212115Z AUTO 10009KT 10SM SCT030 30/24 A2991 RMK AO2 LTG DSNT W AND NW T02950244
KRBO 212055Z AUTO 10012KT 10SM SCT022 SCT028 SCT032 30/24 A2991 RMK AO2 LTG DSNT NW T02950241
KRBO 212035Z AUTO 10011G16KT 10SM SCT024 SCT033 30/25 A2990 RMK AO2 T03010245
KRBO 212015Z AUTO 10011G17KT 10SM SCT026 SCT031 30/25 A2991 RMK AO2 T03010245
KRBO 211955Z AUTO 10011G18KT 10SM SCT021 SCT028 SCT039 30/24 A2992 RMK AO2 T03020244
KRBO 211935Z AUTO 09014G18KT 10SM SCT020 SCT027 SCT048 31/25 A2993 RMK AO2 T03050248
KRBO 211915Z AUTO 11010KT 10SM SCT026 SCT033 SCT044 31/24 A2994 RMK AO2 LTG DSNT N T03090239
KRBO 211855Z AUTO 13013KT 10SM SCT028 SCT035 SCT044 31/24 A2995 RMK AO2 LTG DSNT N T03050241
KRBO 211835Z AUTO 12012KT 10SM SCT030 SCT040 BKN048 30/24 A2994 RMK AO2 LTG DSNT NE T03020239
KRBO 211815Z AUTO 10011KT 10SM SCT030 SCT040 BKN050 30/24 A2995 RMK AO2 LTG DSNT NE T03000240
KRBO 211755Z AUTO 10012KT 10SM SCT050 30/24 A2996 RMK AO2 60028 T03000242 10305 20261
KRBO 211735Z AUTO 12010KT 10SM SCT023 SCT036 SCT045 31/24 A2996 RMK AO2 LTG DSNT NE P0001 T03050242
KRBO 211715Z AUTO 10008KT 10SM SCT021 SCT026 BKN039 30/25 A2996 RMK AO2 T02990250


Page loaded:  05:04 UTC  |   10:04 PM Pacific  |   11:04 PM Mountain  |   12:04 AM Central  |   01:04 AM Eastern

 

ADVISORIES

FORECASTS

FORECASTS

OBSERVATIONS

USER TOOLS

ABOUT US